sensor_id;sensor_type;location;lat;lon;timestamp;P1;durP1;ratioP1;P2;durP2;ratioP2
21837;SDS011;11081;45.946;6.140;2023-03-08T00:01:55;8.33;;;5.77;;
21837;SDS011;11081;45.946;6.140;2023-03-08T00:04:23;7.47;;;5.57;;
21837;SDS011;11081;45.946;6.140;2023-03-08T00:06:51;7.80;;;5.47;;
21837;SDS011;11081;45.946;6.140;2023-03-08T00:09:19;7.27;;;4.87;;
21837;SDS011;11081;45.946;6.140;2023-03-08T00:11:49;8.77;;;5.47;;
21837;SDS011;11081;45.946;6.140;2023-03-08T00:14:16;7.67;;;4.93;;
21837;SDS011;11081;45.946;6.140;2023-03-08T00:16:46;6.77;;;5.17;;
21837;SDS011;11081;45.946;6.140;2023-03-08T00:19:14;6.93;;;5.03;;
21837;SDS011;11081;45.946;6.140;2023-03-08T00:21:42;10.43;;;5.57;;
21837;SDS011;11081;45.946;6.140;2023-03-08T00:24:10;6.43;;;4.77;;
21837;SDS011;11081;45.946;6.140;2023-03-08T00:26:42;7.03;;;5.03;;
21837;SDS011;11081;45.946;6.140;2023-03-08T00:29:11;7.17;;;5.53;;
21837;SDS011;11081;45.946;6.140;2023-03-08T00:31:39;5.07;;;4.20;;
21837;SDS011;11081;45.946;6.140;2023-03-08T00:34:08;4.57;;;3.87;;
21837;SDS011;11081;45.946;6.140;2023-03-08T00:36:39;5.80;;;4.10;;
21837;SDS011;11081;45.946;6.140;2023-03-08T00:39:07;5.43;;;4.27;;
21837;SDS011;11081;45.946;6.140;2023-03-08T00:41:35;5.83;;;4.40;;
21837;SDS011;11081;45.946;6.140;2023-03-08T00:44:03;6.93;;;4.10;;
21837;SDS011;11081;45.946;6.140;2023-03-08T00:46:32;4.77;;;4.20;;
21837;SDS011;11081;45.946;6.140;2023-03-08T00:49:00;5.10;;;4.00;;
21837;SDS011;11081;45.946;6.140;2023-03-08T00:51:30;5.87;;;4.50;;
21837;SDS011;11081;45.946;6.140;2023-03-08T00:53:58;5.53;;;4.40;;
21837;SDS011;11081;45.946;6.140;2023-03-08T00:56:26;5.53;;;4.27;;
21837;SDS011;11081;45.946;6.140;2023-03-08T00:58:55;5.57;;;4.20;;
21837;SDS011;11081;45.946;6.140;2023-03-08T01:01:23;5.50;;;4.27;;
21837;SDS011;11081;45.946;6.140;2023-03-08T01:03:52;4.37;;;3.30;;
21837;SDS011;11081;45.946;6.140;2023-03-08T01:06:21;4.70;;;3.60;;
21837;SDS011;11081;45.946;6.140;2023-03-08T01:08:50;3.87;;;3.20;;
21837;SDS011;11081;45.946;6.140;2023-03-08T01:11:18;5.37;;;3.67;;
21837;SDS011;11081;45.946;6.140;2023-03-08T01:13:48;5.87;;;4.40;;
21837;SDS011;11081;45.946;6.140;2023-03-08T01:16:18;5.10;;;4.10;;
21837;SDS011;11081;45.946;6.140;2023-03-08T01:18:47;5.47;;;3.80;;
21837;SDS011;11081;45.946;6.140;2023-03-08T01:21:19;5.77;;;4.00;;
21837;SDS011;11081;45.946;6.140;2023-03-08T01:23:48;5.47;;;3.80;;
21837;SDS011;11081;45.946;6.140;2023-03-08T01:26:17;8.97;;;4.63;;
21837;SDS011;11081;45.946;6.140;2023-03-08T01:28:47;5.90;;;4.43;;
21837;SDS011;11081;45.946;6.140;2023-03-08T01:31:16;6.47;;;4.40;;
21837;SDS011;11081;45.946;6.140;2023-03-08T01:33:46;8.47;;;5.03;;
21837;SDS011;11081;45.946;6.140;2023-03-08T01:36:15;8.27;;;5.20;;
21837;SDS011;11081;45.946;6.140;2023-03-08T01:38:46;8.03;;;5.67;;
21837;SDS011;11081;45.946;6.140;2023-03-08T01:41:16;6.90;;;5.40;;
21837;SDS011;11081;45.946;6.140;2023-03-08T01:43:45;7.70;;;5.73;;
21837;SDS011;11081;45.946;6.140;2023-03-08T01:46:14;9.87;;;6.07;;
21837;SDS011;11081;45.946;6.140;2023-03-08T01:48:50;9.03;;;6.80;;
21837;SDS011;11081;45.946;6.140;2023-03-08T01:51:23;10.33;;;6.43;;
21837;SDS011;11081;45.946;6.140;2023-03-08T01:53:56;8.87;;;6.10;;
21837;SDS011;11081;45.946;6.140;2023-03-08T01:56:27;9.70;;;6.67;;
21837;SDS011;11081;45.946;6.140;2023-03-08T01:58:55;8.20;;;6.33;;
21837;SDS011;11081;45.946;6.140;2023-03-08T02:01:23;10.07;;;6.63;;
21837;SDS011;11081;45.946;6.140;2023-03-08T02:03:55;11.20;;;7.17;;
21837;SDS011;11081;45.946;6.140;2023-03-08T02:06:24;13.03;;;7.90;;
21837;SDS011;11081;45.946;6.140;2023-03-08T02:08:52;9.67;;;7.63;;
21837;SDS011;11081;45.946;6.140;2023-03-08T02:11:22;10.80;;;8.50;;
21837;SDS011;11081;45.946;6.140;2023-03-08T02:13:54;11.93;;;9.23;;
21837;SDS011;11081;45.946;6.140;2023-03-08T02:16:23;16.43;;;9.33;;
21837;SDS011;11081;45.946;6.140;2023-03-08T02:18:53;13.27;;;9.37;;
21837;SDS011;11081;45.946;6.140;2023-03-08T02:21:22;11.53;;;8.27;;
21837;SDS011;11081;45.946;6.140;2023-03-08T02:23:52;11.90;;;8.33;;
21837;SDS011;11081;45.946;6.140;2023-03-08T02:26:20;12.13;;;7.87;;
21837;SDS011;11081;45.946;6.140;2023-03-08T02:28:49;9.40;;;7.50;;
21837;SDS011;11081;45.946;6.140;2023-03-08T02:31:19;10.43;;;7.87;;
21837;SDS011;11081;45.946;6.140;2023-03-08T02:33:47;8.60;;;6.50;;
21837;SDS011;11081;45.946;6.140;2023-03-08T02:36:15;9.33;;;7.03;;
21837;SDS011;11081;45.946;6.140;2023-03-08T02:38:43;9.73;;;7.47;;
21837;SDS011;11081;45.946;6.140;2023-03-08T02:41:12;9.63;;;6.80;;
21837;SDS011;11081;45.946;6.140;2023-03-08T02:43:42;9.83;;;7.50;;
21837;SDS011;11081;45.946;6.140;2023-03-08T02:46:10;9.77;;;6.80;;
21837;SDS011;11081;45.946;6.140;2023-03-08T02:48:39;7.73;;;6.00;;
21837;SDS011;11081;45.946;6.140;2023-03-08T02:51:07;8.53;;;6.83;;
21837;SDS011;11081;45.946;6.140;2023-03-08T02:53:35;9.13;;;6.83;;
21837;SDS011;11081;45.946;6.140;2023-03-08T02:56:03;12.40;;;7.63;;
21837;SDS011;11081;45.946;6.140;2023-03-08T02:58:33;10.67;;;7.07;;
21837;SDS011;11081;45.946;6.140;2023-03-08T03:01:01;9.93;;;7.57;;
21837;SDS011;11081;45.946;6.140;2023-03-08T03:03:29;9.13;;;6.87;;
21837;SDS011;11081;45.946;6.140;2023-03-08T03:05:57;12.40;;;6.83;;
21837;SDS011;11081;45.946;6.140;2023-03-08T03:08:30;8.67;;;6.20;;
21837;SDS011;11081;45.946;6.140;2023-03-08T03:10:58;7.43;;;5.77;;
21837;SDS011;11081;45.946;6.140;2023-03-08T03:13:27;9.07;;;6.03;;
21837;SDS011;11081;45.946;6.140;2023-03-08T03:15:56;7.80;;;5.87;;
21837;SDS011;11081;45.946;6.140;2023-03-08T03:18:24;8.80;;;6.20;;
21837;SDS011;11081;45.946;6.140;2023-03-08T03:20:52;8.73;;;5.67;;
21837;SDS011;11081;45.946;6.140;2023-03-08T03:23:20;7.93;;;5.67;;
21837;SDS011;11081;45.946;6.140;2023-03-08T03:25:51;6.77;;;5.23;;
21837;SDS011;11081;45.946;6.140;2023-03-08T03:28:19;7.83;;;4.87;;
21837;SDS011;11081;45.946;6.140;2023-03-08T03:30:48;9.17;;;5.30;;
21837;SDS011;11081;45.946;6.140;2023-03-08T03:33:18;6.50;;;5.33;;
21837;SDS011;11081;45.946;6.140;2023-03-08T03:35:46;7.43;;;5.40;;
21837;SDS011;11081;45.946;6.140;2023-03-08T03:38:15;6.43;;;5.30;;
21837;SDS011;11081;45.946;6.140;2023-03-08T03:40:44;7.03;;;5.20;;
21837;SDS011;11081;45.946;6.140;2023-03-08T03:43:12;5.90;;;4.67;;
21837;SDS011;11081;45.946;6.140;2023-03-08T03:45:40;6.53;;;4.63;;
21837;SDS011;11081;45.946;6.140;2023-03-08T03:48:08;6.60;;;4.67;;
21837;SDS011;11081;45.946;6.140;2023-03-08T03:50:38;6.37;;;4.70;;
21837;SDS011;11081;45.946;6.140;2023-03-08T03:53:10;7.37;;;5.13;;
21837;SDS011;11081;45.946;6.140;2023-03-08T03:55:39;7.00;;;4.90;;
21837;SDS011;11081;45.946;6.140;2023-03-08T03:58:07;5.63;;;4.20;;
21837;SDS011;11081;45.946;6.140;2023-03-08T04:00:35;6.30;;;4.87;;
21837;SDS011;11081;45.946;6.140;2023-03-08T04:03:13;6.03;;;4.60;;
21837;SDS011;11081;45.946;6.140;2023-03-08T04:05:42;6.20;;;4.73;;
21837;SDS011;11081;45.946;6.140;2023-03-08T04:08:10;6.70;;;4.70;;
21837;SDS011;11081;45.946;6.140;2023-03-08T04:10:40;6.20;;;4.70;;
21837;SDS011;11081;45.946;6.140;2023-03-08T04:13:08;7.40;;;4.93;;
21837;SDS011;11081;45.946;6.140;2023-03-08T04:15:39;6.53;;;4.87;;
21837;SDS011;11081;45.946;6.140;2023-03-08T04:18:10;7.00;;;4.80;;
21837;SDS011;11081;45.946;6.140;2023-03-08T04:20:44;6.97;;;5.17;;
21837;SDS011;11081;45.946;6.140;2023-03-08T04:23:14;8.87;;;5.63;;
21837;SDS011;11081;45.946;6.140;2023-03-08T04:25:45;8.47;;;5.67;;
21837;SDS011;11081;45.946;6.140;2023-03-08T04:28:14;7.73;;;5.73;;
21837;SDS011;11081;45.946;6.140;2023-03-08T04:30:43;7.20;;;5.60;;
21837;SDS011;11081;45.946;6.140;2023-03-08T04:33:13;6.37;;;5.20;;
21837;SDS011;11081;45.946;6.140;2023-03-08T04:35:47;8.87;;;5.83;;
21837;SDS011;11081;45.946;6.140;2023-03-08T04:38:17;8.20;;;5.77;;
21837;SDS011;11081;45.946;6.140;2023-03-08T04:40:48;7.63;;;5.67;;
21837;SDS011;11081;45.946;6.140;2023-03-08T04:43:42;8.10;;;5.93;;
21837;SDS011;11081;45.946;6.140;2023-03-08T04:46:12;8.53;;;6.07;;
21837;SDS011;11081;45.946;6.140;2023-03-08T04:48:41;7.50;;;5.40;;
21837;SDS011;11081;45.946;6.140;2023-03-08T04:51:13;8.67;;;5.87;;
21837;SDS011;11081;45.946;6.140;2023-03-08T04:53:43;7.17;;;5.83;;
21837;SDS011;11081;45.946;6.140;2023-03-08T04:56:12;7.00;;;5.90;;
21837;SDS011;11081;45.946;6.140;2023-03-08T04:58:42;9.20;;;6.23;;
21837;SDS011;11081;45.946;6.140;2023-03-08T05:01:13;6.83;;;5.70;;
21837;SDS011;11081;45.946;6.140;2023-03-08T05:03:43;8.17;;;6.23;;
21837;SDS011;11081;45.946;6.140;2023-03-08T05:06:13;7.93;;;6.03;;
21837;SDS011;11081;45.946;6.140;2023-03-08T05:08:42;8.80;;;5.93;;
21837;SDS011;11081;45.946;6.140;2023-03-08T05:11:10;8.03;;;5.77;;
21837;SDS011;11081;45.946;6.140;2023-03-08T05:13:44;7.63;;;6.00;;
21837;SDS011;11081;45.946;6.140;2023-03-08T05:16:12;9.13;;;6.10;;
21837;SDS011;11081;45.946;6.140;2023-03-08T05:18:40;6.77;;;4.63;;
21837;SDS011;11081;45.946;6.140;2023-03-08T05:21:10;7.10;;;5.03;;
21837;SDS011;11081;45.946;6.140;2023-03-08T05:23:42;6.57;;;5.00;;
21837;SDS011;11081;45.946;6.140;2023-03-08T05:26:12;7.77;;;5.50;;
21837;SDS011;11081;45.946;6.140;2023-03-08T05:28:42;7.80;;;5.07;;
21837;SDS011;11081;45.946;6.140;2023-03-08T05:31:11;6.50;;;4.93;;
21837;SDS011;11081;45.946;6.140;2023-03-08T05:33:41;7.10;;;5.67;;
21837;SDS011;11081;45.946;6.140;2023-03-08T05:36:09;7.93;;;5.67;;
21837;SDS011;11081;45.946;6.140;2023-03-08T05:38:38;9.00;;;5.83;;
21837;SDS011;11081;45.946;6.140;2023-03-08T05:41:11;5.60;;;3.70;;
21837;SDS011;11081;45.946;6.140;2023-03-08T05:43:45;9.83;;;5.70;;
21837;SDS011;11081;45.946;6.140;2023-03-08T05:46:14;8.73;;;6.30;;
21837;SDS011;11081;45.946;6.140;2023-03-08T05:48:44;9.17;;;5.90;;
21837;SDS011;11081;45.946;6.140;2023-03-08T05:51:16;7.67;;;5.97;;
21837;SDS011;11081;45.946;6.140;2023-03-08T05:53:45;8.87;;;6.67;;
21837;SDS011;11081;45.946;6.140;2023-03-08T05:56:16;9.30;;;6.53;;
21837;SDS011;11081;45.946;6.140;2023-03-08T05:58:56;10.10;;;6.83;;
21837;SDS011;11081;45.946;6.140;2023-03-08T06:01:26;8.67;;;6.40;;
21837;SDS011;11081;45.946;6.140;2023-03-08T06:04:03;14.13;;;7.10;;
21837;SDS011;11081;45.946;6.140;2023-03-08T06:06:35;8.83;;;6.37;;
21837;SDS011;11081;45.946;6.140;2023-03-08T06:09:04;9.10;;;6.53;;
21837;SDS011;11081;45.946;6.140;2023-03-08T06:11:36;10.27;;;6.63;;
21837;SDS011;11081;45.946;6.140;2023-03-08T06:14:05;9.50;;;7.13;;
21837;SDS011;11081;45.946;6.140;2023-03-08T06:16:34;10.50;;;7.57;;
21837;SDS011;11081;45.946;6.140;2023-03-08T06:19:03;10.20;;;6.87;;
21837;SDS011;11081;45.946;6.140;2023-03-08T06:21:32;9.60;;;7.43;;
21837;SDS011;11081;45.946;6.140;2023-03-08T06:24:02;12.40;;;8.40;;
21837;SDS011;11081;45.946;6.140;2023-03-08T06:26:31;9.73;;;7.23;;
21837;SDS011;11081;45.946;6.140;2023-03-08T06:29:00;10.73;;;7.70;;
21837;SDS011;11081;45.946;6.140;2023-03-08T06:31:31;10.93;;;7.10;;
21837;SDS011;11081;45.946;6.140;2023-03-08T06:34:00;11.23;;;7.30;;
21837;SDS011;11081;45.946;6.140;2023-03-08T06:36:29;10.33;;;7.50;;
21837;SDS011;11081;45.946;6.140;2023-03-08T06:38:57;10.17;;;7.47;;
21837;SDS011;11081;45.946;6.140;2023-03-08T06:41:26;12.03;;;7.37;;
21837;SDS011;11081;45.946;6.140;2023-03-08T06:43:57;11.73;;;7.67;;
21837;SDS011;11081;45.946;6.140;2023-03-08T06:46:27;9.87;;;6.40;;
21837;SDS011;11081;45.946;6.140;2023-03-08T06:48:55;9.33;;;5.33;;
21837;SDS011;11081;45.946;6.140;2023-03-08T06:51:23;6.97;;;5.17;;
21837;SDS011;11081;45.946;6.140;2023-03-08T06:53:52;6.60;;;4.70;;
21837;SDS011;11081;45.946;6.140;2023-03-08T06:56:23;6.90;;;4.87;;
21837;SDS011;11081;45.946;6.140;2023-03-08T06:58:53;7.00;;;4.93;;
21837;SDS011;11081;45.946;6.140;2023-03-08T07:01:21;8.90;;;5.10;;
21837;SDS011;11081;45.946;6.140;2023-03-08T07:03:50;9.90;;;5.53;;
21837;SDS011;11081;45.946;6.140;2023-03-08T07:06:18;7.07;;;5.00;;
21837;SDS011;11081;45.946;6.140;2023-03-08T07:08:46;8.00;;;4.97;;
21837;SDS011;11081;45.946;6.140;2023-03-08T07:11:14;8.53;;;4.57;;
21837;SDS011;11081;45.946;6.140;2023-03-08T07:13:42;5.27;;;3.50;;
21837;SDS011;11081;45.946;6.140;2023-03-08T07:16:11;3.77;;;2.90;;
21837;SDS011;11081;45.946;6.140;2023-03-08T07:18:39;5.00;;;2.67;;
21837;SDS011;11081;45.946;6.140;2023-03-08T07:21:09;4.43;;;2.37;;
21837;SDS011;11081;45.946;6.140;2023-03-08T07:23:37;2.43;;;1.90;;
21837;SDS011;11081;45.946;6.140;2023-03-08T07:26:05;2.13;;;1.80;;
21837;SDS011;11081;45.946;6.140;2023-03-08T07:28:34;3.00;;;1.70;;
21837;SDS011;11081;45.946;6.140;2023-03-08T07:31:03;2.07;;;1.47;;
21837;SDS011;11081;45.946;6.140;2023-03-08T07:33:31;3.83;;;1.50;;
21837;SDS011;11081;45.946;6.140;2023-03-08T07:35:59;3.20;;;1.30;;
21837;SDS011;11081;45.946;6.140;2023-03-08T07:38:29;1.90;;;1.10;;
21837;SDS011;11081;45.946;6.140;2023-03-08T07:40:57;2.43;;;1.10;;
21837;SDS011;11081;45.946;6.140;2023-03-08T07:43:25;1.53;;;0.80;;
21837;SDS011;11081;45.946;6.140;2023-03-08T07:45:59;1.90;;;1.20;;
21837;SDS011;11081;45.946;6.140;2023-03-08T07:48:28;2.80;;;1.17;;
21837;SDS011;11081;45.946;6.140;2023-03-08T07:51:01;1.50;;;0.87;;
21837;SDS011;11081;45.946;6.140;2023-03-08T07:53:32;1.43;;;1.00;;
21837;SDS011;11081;45.946;6.140;2023-03-08T07:56:00;1.53;;;1.10;;
21837;SDS011;11081;45.946;6.140;2023-03-08T07:58:28;1.07;;;0.90;;
21837;SDS011;11081;45.946;6.140;2023-03-08T08:00:56;1.23;;;0.93;;
21837;SDS011;11081;45.946;6.140;2023-03-08T08:03:24;1.97;;;0.97;;
21837;SDS011;11081;45.946;6.140;2023-03-08T08:05:52;1.00;;;0.80;;
21837;SDS011;11081;45.946;6.140;2023-03-08T08:08:20;1.10;;;0.90;;
21837;SDS011;11081;45.946;6.140;2023-03-08T08:10:50;2.37;;;0.93;;
21837;SDS011;11081;45.946;6.140;2023-03-08T08:13:17;1.73;;;0.63;;
21837;SDS011;11081;45.946;6.140;2023-03-08T08:15:45;1.03;;;0.63;;
21837;SDS011;11081;45.946;6.140;2023-03-08T08:18:13;0.97;;;0.80;;
21837;SDS011;11081;45.946;6.140;2023-03-08T08:20:41;1.70;;;1.00;;
21837;SDS011;11081;45.946;6.140;2023-03-08T08:23:09;2.37;;;1.10;;
21837;SDS011;11081;45.946;6.140;2023-03-08T08:25:37;10.60;;;4.83;;
21837;SDS011;11081;45.946;6.140;2023-03-08T08:28:07;3.90;;;2.37;;
21837;SDS011;11081;45.946;6.140;2023-03-08T08:30:35;7.43;;;3.93;;
21837;SDS011;11081;45.946;6.140;2023-03-08T08:33:03;3.43;;;2.30;;
21837;SDS011;11081;45.946;6.140;2023-03-08T08:35:31;2.07;;;1.20;;
21837;SDS011;11081;45.946;6.140;2023-03-08T08:38:08;2.40;;;0.97;;
21837;SDS011;11081;45.946;6.140;2023-03-08T08:40:36;1.30;;;1.00;;
21837;SDS011;11081;45.946;6.140;2023-03-08T08:43:04;2.87;;;1.63;;
21837;SDS011;11081;45.946;6.140;2023-03-08T08:45:34;2.07;;;1.00;;
21837;SDS011;11081;45.946;6.140;2023-03-08T08:48:02;2.80;;;1.83;;
21837;SDS011;11081;45.946;6.140;2023-03-08T08:50:31;1.43;;;0.90;;
21837;SDS011;11081;45.946;6.140;2023-03-08T08:52:59;1.97;;;1.03;;
21837;SDS011;11081;45.946;6.140;2023-03-08T08:55:27;1.00;;;0.80;;
21837;SDS011;11081;45.946;6.140;2023-03-08T08:57:55;1.20;;;0.90;;
21837;SDS011;11081;45.946;6.140;2023-03-08T09:00:23;2.27;;;1.37;;
21837;SDS011;11081;45.946;6.140;2023-03-08T09:02:52;1.63;;;1.17;;
21837;SDS011;11081;45.946;6.140;2023-03-08T09:05:21;2.53;;;1.10;;
21837;SDS011;11081;45.946;6.140;2023-03-08T09:07:49;2.60;;;1.50;;
21837;SDS011;11081;45.946;6.140;2023-03-08T09:10:19;1.37;;;0.83;;
21837;SDS011;11081;45.946;6.140;2023-03-08T09:12:47;5.10;;;1.10;;
21837;SDS011;11081;45.946;6.140;2023-03-08T09:15:15;1.47;;;1.13;;
21837;SDS011;11081;45.946;6.140;2023-03-08T09:17:43;3.60;;;1.70;;
21837;SDS011;11081;45.946;6.140;2023-03-08T09:20:13;3.43;;;0.87;;
21837;SDS011;11081;45.946;6.140;2023-03-08T09:22:41;2.03;;;1.17;;
21837;SDS011;11081;45.946;6.140;2023-03-08T09:25:09;2.03;;;1.50;;
21837;SDS011;11081;45.946;6.140;2023-03-08T09:27:39;2.17;;;1.30;;
21837;SDS011;11081;45.946;6.140;2023-03-08T09:30:09;1.67;;;1.03;;
21837;SDS011;11081;45.946;6.140;2023-03-08T09:32:39;2.07;;;1.20;;
21837;SDS011;11081;45.946;6.140;2023-03-08T09:35:07;1.87;;;0.87;;
21837;SDS011;11081;45.946;6.140;2023-03-08T09:37:37;1.33;;;0.90;;
21837;SDS011;11081;45.946;6.140;2023-03-08T09:40:06;1.00;;;0.67;;
21837;SDS011;11081;45.946;6.140;2023-03-08T09:42:39;0.57;;;0.57;;
21837;SDS011;11081;45.946;6.140;2023-03-08T09:45:13;2.03;;;0.70;;
21837;SDS011;11081;45.946;6.140;2023-03-08T09:47:47;1.00;;;0.70;;
21837;SDS011;11081;45.946;6.140;2023-03-08T09:50:30;2.73;;;0.70;;
21837;SDS011;11081;45.946;6.140;2023-03-08T09:53:04;0.93;;;0.67;;
21837;SDS011;11081;45.946;6.140;2023-03-08T09:55:43;1.30;;;0.77;;
21837;SDS011;11081;45.946;6.140;2023-03-08T09:58:16;1.93;;;0.97;;
21837;SDS011;11081;45.946;6.140;2023-03-08T10:00:51;0.67;;;0.60;;
21837;SDS011;11081;45.946;6.140;2023-03-08T10:03:28;2.57;;;0.80;;
21837;SDS011;11081;45.946;6.140;2023-03-08T10:06:06;3.50;;;1.00;;
21837;SDS011;11081;45.946;6.140;2023-03-08T10:08:43;1.70;;;0.70;;
21837;SDS011;11081;45.946;6.140;2023-03-08T10:11:18;2.73;;;0.80;;
21837;SDS011;11081;45.946;6.140;2023-03-08T10:13:51;0.90;;;0.60;;
21837;SDS011;11081;45.946;6.140;2023-03-08T10:16:23;2.20;;;0.60;;
21837;SDS011;11081;45.946;6.140;2023-03-08T10:18:54;2.40;;;0.77;;
21837;SDS011;11081;45.946;6.140;2023-03-08T10:21:26;1.00;;;0.80;;
21837;SDS011;11081;45.946;6.140;2023-03-08T10:23:59;0.87;;;0.70;;
21837;SDS011;11081;45.946;6.140;2023-03-08T10:26:32;0.77;;;0.60;;
21837;SDS011;11081;45.946;6.140;2023-03-08T10:29:00;1.90;;;0.90;;
21837;SDS011;11081;45.946;6.140;2023-03-08T10:31:29;1.00;;;0.63;;
21837;SDS011;11081;45.946;6.140;2023-03-08T10:34:01;2.53;;;0.70;;
21837;SDS011;11081;45.946;6.140;2023-03-08T10:36:33;0.93;;;0.70;;
21837;SDS011;11081;45.946;6.140;2023-03-08T10:39:06;1.67;;;0.50;;
21837;SDS011;11081;45.946;6.140;2023-03-08T10:41:36;1.93;;;0.70;;
21837;SDS011;11081;45.946;6.140;2023-03-08T10:44:09;1.20;;;0.70;;
21837;SDS011;11081;45.946;6.140;2023-03-08T10:46:47;1.13;;;0.90;;
21837;SDS011;11081;45.946;6.140;2023-03-08T10:49:16;1.53;;;0.80;;
21837;SDS011;11081;45.946;6.140;2023-03-08T10:51:56;0.80;;;0.70;;
21837;SDS011;11081;45.946;6.140;2023-03-08T10:54:26;0.50;;;0.50;;
21837;SDS011;11081;45.946;6.140;2023-03-08T10:56:55;1.70;;;0.50;;
21837;SDS011;11081;45.946;6.140;2023-03-08T10:59:26;0.80;;;0.63;;
21837;SDS011;11081;45.946;6.140;2023-03-08T11:01:58;4.57;;;0.97;;
21837;SDS011;11081;45.946;6.140;2023-03-08T11:04:29;1.83;;;1.00;;
21837;SDS011;11081;45.946;6.140;2023-03-08T11:06:57;2.40;;;1.23;;
21837;SDS011;11081;45.946;6.140;2023-03-08T11:09:37;3.60;;;1.20;;
21837;SDS011;11081;45.946;6.140;2023-03-08T11:12:05;1.73;;;0.90;;
21837;SDS011;11081;45.946;6.140;2023-03-08T11:14:33;1.30;;;0.70;;
21837;SDS011;11081;45.946;6.140;2023-03-08T11:17:12;1.93;;;0.60;;
21837;SDS011;11081;45.946;6.140;2023-03-08T11:19:48;0.90;;;0.70;;
21837;SDS011;11081;45.946;6.140;2023-03-08T11:22:31;0.93;;;0.60;;
21837;SDS011;11081;45.946;6.140;2023-03-08T11:25:19;0.90;;;0.77;;
21837;SDS011;11081;45.946;6.140;2023-03-08T11:28:10;1.08;;;0.80;;
21837;SDS011;11081;45.946;6.140;2023-03-08T11:30:53;2.43;;;1.40;;
21837;SDS011;11081;45.946;6.140;2023-03-08T11:33:35;3.40;;;1.20;;
21837;SDS011;11081;45.946;6.140;2023-03-08T11:36:25;1.50;;;0.80;;
21837;SDS011;11081;45.946;6.140;2023-03-08T11:39:01;2.40;;;1.10;;
21837;SDS011;11081;45.946;6.140;2023-03-08T11:41:40;1.10;;;0.80;;
21837;SDS011;11081;45.946;6.140;2023-03-08T11:44:22;1.87;;;0.90;;
21837;SDS011;11081;45.946;6.140;2023-03-08T11:50:19;0.83;;;0.60;;
21837;SDS011;11081;45.946;6.140;2023-03-08T11:52:52;1.47;;;1.00;;
21837;SDS011;11081;45.946;6.140;2023-03-08T11:55:32;2.00;;;1.13;;
21837;SDS011;11081;45.946;6.140;2023-03-08T11:58:10;2.13;;;1.40;;
21837;SDS011;11081;45.946;6.140;2023-03-08T12:00:46;1.50;;;1.03;;
21837;SDS011;11081;45.946;6.140;2023-03-08T12:03:18;3.03;;;1.33;;
21837;SDS011;11081;45.946;6.140;2023-03-08T12:05:51;1.00;;;0.80;;
21837;SDS011;11081;45.946;6.140;2023-03-08T12:08:23;1.73;;;1.23;;
21837;SDS011;11081;45.946;6.140;2023-03-08T12:10:57;2.47;;;0.80;;
21837;SDS011;11081;45.946;6.140;2023-03-08T12:13:33;1.73;;;0.77;;
21837;SDS011;11081;45.946;6.140;2023-03-08T12:16:05;2.40;;;0.80;;
21837;SDS011;11081;45.946;6.140;2023-03-08T12:18:39;1.50;;;1.00;;
21837;SDS011;11081;45.946;6.140;2023-03-08T12:21:17;3.90;;;0.90;;
21837;SDS011;11081;45.946;6.140;2023-03-08T12:23:55;2.10;;;1.27;;
21837;SDS011;11081;45.946;6.140;2023-03-08T12:26:35;5.30;;;2.00;;
21837;SDS011;11081;45.946;6.140;2023-03-08T12:29:10;2.60;;;1.33;;
21837;SDS011;11081;45.946;6.140;2023-03-08T12:31:43;4.27;;;1.50;;
21837;SDS011;11081;45.946;6.140;2023-03-08T12:34:13;1.73;;;1.02;;
21837;SDS011;11081;45.946;6.140;2023-03-08T12:36:53;2.72;;;1.20;;
21837;SDS011;11081;45.946;6.140;2023-03-08T12:39:23;2.97;;;1.40;;
21837;SDS011;11081;45.946;6.140;2023-03-08T12:41:58;5.50;;;1.50;;
21837;SDS011;11081;45.946;6.140;2023-03-08T12:44:29;3.77;;;1.43;;
21837;SDS011;11081;45.946;6.140;2023-03-08T12:46:58;3.07;;;1.07;;
21837;SDS011;11081;45.946;6.140;2023-03-08T12:49:30;1.13;;;0.75;;
21837;SDS011;11081;45.946;6.140;2023-03-08T12:52:01;3.03;;;1.50;;
21837;SDS011;11081;45.946;6.140;2023-03-08T12:54:32;4.90;;;2.30;;
21837;SDS011;11081;45.946;6.140;2023-03-08T12:57:02;5.37;;;3.13;;
21837;SDS011;11081;45.946;6.140;2023-03-08T12:59:43;7.50;;;3.58;;
21837;SDS011;11081;45.946;6.140;2023-03-08T13:02:23;4.50;;;2.75;;
21837;SDS011;11081;45.946;6.140;2023-03-08T13:05:15;3.22;;;2.50;;
21837;SDS011;11081;45.946;6.140;2023-03-08T13:07:49;7.33;;;3.13;;
21837;SDS011;11081;45.946;6.140;2023-03-08T13:10:25;5.25;;;4.10;;
21837;SDS011;11081;45.946;6.140;2023-03-08T13:13:03;5.07;;;3.85;;
21837;SDS011;11081;45.946;6.140;2023-03-08T13:16:14;5.63;;;4.67;;
21837;SDS011;11081;45.946;6.140;2023-03-08T13:18:46;7.90;;;4.93;;
21837;SDS011;11081;45.946;6.140;2023-03-08T13:21:22;8.07;;;4.45;;
21837;SDS011;11081;45.946;6.140;2023-03-08T13:23:57;9.17;;;6.37;;
21837;SDS011;11081;45.946;6.140;2023-03-08T13:26:41;10.15;;;5.40;;
21837;SDS011;11081;45.946;6.140;2023-03-08T13:29:17;8.23;;;5.03;;
21837;SDS011;11081;45.946;6.140;2023-03-08T13:31:48;9.10;;;6.33;;
21837;SDS011;11081;45.946;6.140;2023-03-08T13:34:22;11.32;;;6.45;;
21837;SDS011;11081;45.946;6.140;2023-03-08T13:36:55;7.40;;;4.50;;
21837;SDS011;11081;45.946;6.140;2023-03-08T13:39:24;8.95;;;4.72;;
21837;SDS011;11081;45.946;6.140;2023-03-08T13:42:03;6.07;;;4.53;;
21837;SDS011;11081;45.946;6.140;2023-03-08T13:44:33;6.70;;;4.03;;
21837;SDS011;11081;45.946;6.140;2023-03-08T13:47:03;5.77;;;3.27;;
21837;SDS011;11081;45.946;6.140;2023-03-08T13:49:41;4.67;;;2.90;;
21837;SDS011;11081;45.946;6.140;2023-03-08T13:52:12;2.47;;;1.90;;
21837;SDS011;11081;45.946;6.140;2023-03-08T13:54:45;4.73;;;3.37;;
21837;SDS011;11081;45.946;6.140;2023-03-08T13:57:19;11.38;;;4.78;;
21837;SDS011;11081;45.946;6.140;2023-03-08T13:59:49;4.55;;;3.15;;
21837;SDS011;11081;45.946;6.140;2023-03-08T14:02:21;6.17;;;3.60;;
21837;SDS011;11081;45.946;6.140;2023-03-08T14:04:51;3.80;;;1.40;;
21837;SDS011;11081;45.946;6.140;2023-03-08T14:07:21;2.15;;;1.23;;
21837;SDS011;11081;45.946;6.140;2023-03-08T14:09:50;4.80;;;1.90;;
21837;SDS011;11081;45.946;6.140;2023-03-08T14:12:19;3.05;;;2.05;;
21837;SDS011;11081;45.946;6.140;2023-03-08T14:14:50;7.33;;;2.50;;
21837;SDS011;11081;45.946;6.140;2023-03-08T14:17:22;5.18;;;2.08;;
21837;SDS011;11081;45.946;6.140;2023-03-08T14:19:53;2.63;;;1.50;;
21837;SDS011;11081;45.946;6.140;2023-03-08T14:22:23;3.33;;;1.10;;
21837;SDS011;11081;45.946;6.140;2023-03-08T14:25:04;2.43;;;1.60;;
21837;SDS011;11081;45.946;6.140;2023-03-08T14:27:37;7.97;;;2.70;;
21837;SDS011;11081;45.946;6.140;2023-03-08T14:30:10;4.90;;;1.73;;
21837;SDS011;11081;45.946;6.140;2023-03-08T14:32:55;3.20;;;1.40;;
21837;SDS011;11081;45.946;6.140;2023-03-08T14:35:32;3.25;;;1.70;;
21837;SDS011;11081;45.946;6.140;2023-03-08T14:38:11;2.90;;;2.25;;
21837;SDS011;11081;45.946;6.140;2023-03-08T14:40:44;3.33;;;2.40;;
21837;SDS011;11081;45.946;6.140;2023-03-08T14:43:15;4.50;;;2.47;;
21837;SDS011;11081;45.946;6.140;2023-03-08T14:45:49;4.13;;;2.50;;
21837;SDS011;11081;45.946;6.140;2023-03-08T14:48:24;3.77;;;2.50;;
21837;SDS011;11081;45.946;6.140;2023-03-08T14:50:56;3.63;;;2.58;;
21837;SDS011;11081;45.946;6.140;2023-03-08T14:53:27;6.77;;;2.37;;
21837;SDS011;11081;45.946;6.140;2023-03-08T14:55:57;4.03;;;2.20;;
21837;SDS011;11081;45.946;6.140;2023-03-08T14:58:27;3.20;;;2.17;;
21837;SDS011;11081;45.946;6.140;2023-03-08T15:00:57;3.43;;;1.90;;
21837;SDS011;11081;45.946;6.140;2023-03-08T15:03:29;5.27;;;2.33;;
21837;SDS011;11081;45.946;6.140;2023-03-08T15:05:58;3.97;;;1.97;;
21837;SDS011;11081;45.946;6.140;2023-03-08T15:08:31;4.45;;;1.67;;
21837;SDS011;11081;45.946;6.140;2023-03-08T15:10:59;4.53;;;1.63;;
21837;SDS011;11081;45.946;6.140;2023-03-08T15:13:27;5.37;;;2.37;;